Time;durP1;ratioP1;P1;durP2;ratioP2;P2;SDS_P1;SDS_P2;PMS_P1;PMS_P2;Temp;Humidity;BMP_temperature;BMP_pressure;BME280_temperature;BME280_humidity;BME280_pressure;Samples;Min_cycle;Max_cycle;Signal;HPM_P1;HPM_P2
2022/10/06 00:01:28;;;;;;;;;64.00;50.00;;;;;9.30;100.00;100697.63;6315523;20;3498148;-51
2022/10/06 00:03:58;;;;;;;;;63.67;50.33;;;;;9.28;100.00;100699.47;6313320;20;3623189;-56
2022/10/06 00:06:28;;;;;;;;;62.33;50.00;;;;;9.30;100.00;100698.50;6310735;20;3616912;-54
2022/10/06 00:08:58;;;;;;;;;63.67;51.00;;;;;9.32;100.00;100695.72;6311331;20;3625938;-54
2022/10/06 00:11:27;;;;;;;;;61.67;48.67;;;;;9.29;100.00;100685.13;6311984;20;3623173;-55
2022/10/06 00:13:56;;;;;;;;;63.67;50.00;;;;;9.23;100.00;100692.47;6312205;20;3626406;-54
2022/10/06 00:16:25;;;;;;;;;62.00;48.00;;;;;9.34;100.00;100692.06;6282521;20;2862852;-55
2022/10/06 00:18:57;;;;;;;;;62.33;48.67;;;;;9.33;100.00;100682.28;6309846;20;2853504;-53
2022/10/06 00:21:28;;;;;;;;;61.67;49.33;;;;;9.48;100.00;100679.91;6313476;20;2869039;-55
2022/10/06 00:23:57;;;;;;;;;57.00;46.67;;;;;9.60;100.00;100684.75;6314460;20;2873273;-53
2022/10/06 00:26:26;;;;;;;;;54.33;45.33;;;;;9.48;100.00;100678.13;6310528;20;2854558;-54
2022/10/06 00:28:56;;;;;;;;;56.00;46.00;;;;;9.60;100.00;100676.72;6312091;20;2865902;-53
2022/10/06 00:31:25;;;;;;;;;48.67;39.33;;;;;9.79;100.00;100680.34;6312614;20;2855537;-53
2022/10/06 00:33:55;;;;;;;;;51.00;40.00;;;;;9.80;100.00;100682.13;6312443;20;2870153;-55
2022/10/06 00:36:24;;;;;;;;;50.67;43.67;;;;;9.85;100.00;100680.13;6310347;20;3609764;-56
2022/10/06 00:38:55;;;;;;;;;52.67;43.00;;;;;9.72;100.00;100684.25;6311278;20;3610666;-55
2022/10/06 00:41:24;;;;;;;;;47.67;40.00;;;;;9.67;100.00;100687.13;6312969;20;2863845;-54
2022/10/06 00:43:57;;;;;;;;;54.00;45.00;;;;;9.47;100.00;100687.06;6309389;20;2849221;-54
2022/10/06 00:46:48;;;;;;;;;50.50;40.00;;;;;9.41;100.00;100685.53;6281253;20;2855048;-55
2022/10/06 00:49:38;;;;;;;;;60.00;46.33;;;;;9.37;100.00;100683.91;6278458;20;2865001;-53
2022/10/06 00:52:15;;;;;;;;;59.67;49.33;;;;;9.01;100.00;100681.75;6314039;20;3616920;-54
2022/10/06 00:54:45;;;;;;;;;58.00;47.67;;;;;9.09;100.00;100675.22;6312396;20;3615895;-52
2022/10/06 00:57:15;;;;;;;;;52.67;44.67;;;;;9.29;100.00;100669.94;6305315;20;2860799;-54
2022/10/06 00:59:44;;;;;;;;;48.00;40.00;;;;;9.34;100.00;100672.44;6308545;20;2839925;-54
2022/10/06 01:02:28;;;;;;;;;55.33;43.67;;;;;9.26;100.00;100675.41;6310346;20;2856499;-50
2022/10/06 01:05:00;;;;;;;;;56.00;45.00;;;;;9.22;100.00;100679.16;6312548;20;3622251;-53
2022/10/06 01:07:29;;;;;;;;;55.50;45.50;;;;;9.07;100.00;100679.78;6280284;20;2847149;-54
2022/10/06 01:09:59;;;;;;;;;53.00;41.00;;;;;9.06;100.00;100681.59;6276794;20;2864985;-53
2022/10/06 01:12:32;;;;;;;;;46.67;40.00;;;;;9.01;100.00;100679.06;6315445;20;3591965;-49
2022/10/06 01:15:02;;;;;;;;;48.00;39.50;;;;;9.16;100.00;100669.56;6277495;20;2842073;-52
2022/10/06 01:17:55;;;;;;;;;46.00;37.00;;;;;8.94;100.00;100680.25;6278634;20;2872462;-54
2022/10/06 01:20:28;;;;;;;;;48.50;40.00;;;;;8.99;100.00;100682.75;6312668;20;2855543;-51
2022/10/06 01:23:05;;;;;;;;;47.00;37.33;;;;;8.86;100.00;100684.16;6281004;20;3615198;-53
2022/10/06 01:25:35;;;;;;;;;51.00;39.67;;;;;9.05;100.00;100689.66;6309093;20;3616917;-52
2022/10/06 01:28:07;;;;;;;;;48.00;37.00;;;;;9.05;100.00;100692.34;6307057;20;2861845;-52
2022/10/06 01:30:51;;;;;;;;;47.67;38.67;;;;;9.18;100.00;100693.59;6310038;20;3614846;-56
2022/10/06 01:33:22;;;;;;;;;47.50;40.50;;;;;8.76;100.00;100687.16;6278946;20;2847285;-54
2022/10/06 01:35:52;;;;;;;;;47.00;37.33;;;;;8.63;100.00;100685.88;6276247;20;2876499;-53
2022/10/06 01:38:22;;;;;;;;;51.00;39.67;;;;;8.63;100.00;100690.38;6309590;20;2862880;-55
2022/10/06 01:40:53;;;;;;;;;48.00;37.00;;;;;8.70;100.00;100691.91;6312775;20;2865000;-51
2022/10/06 01:43:23;;;;;;;;;46.67;39.00;;;;;8.84;100.00;100697.59;6279422;20;2864059;-52
2022/10/06 01:45:57;;;;;;;;;49.00;38.00;;;;;8.93;100.00;100694.56;6306638;20;2876469;-54
2022/10/06 01:48:27;;;;;;;;;52.33;40.00;;;;;8.80;100.00;100698.66;6313190;20;2861741;-52
2022/10/06 01:50:57;;;;;;;;;48.50;39.00;;;;;8.91;100.00;100696.44;6309835;20;2842987;-48
2022/10/06 01:53:25;;;;;;;;;44.33;37.67;;;;;8.83;100.00;100698.53;6285337;20;3622132;-57
2022/10/06 01:56:00;;;;;;;;;43.00;37.00;;;;;8.89;100.00;100698.28;6272529;20;2868052;-54
2022/10/06 01:58:28;;;;;;;;;51.00;38.67;;;;;8.94;100.00;100701.66;6315778;20;3628343;-52
2022/10/06 02:01:08;;;;;;;;;51.00;39.67;;;;;8.75;100.00;100700.63;6280577;20;2859685;-51
2022/10/06 02:03:40;;;;;;;;;50.33;40.33;;;;;9.09;100.00;100700.22;6311371;20;2870249;-55
2022/10/06 02:06:10;;;;;;;;;38.33;31.00;;;;;8.80;100.00;100704.00;6305329;20;3615878;-58
2022/10/06 02:08:39;;;;;;;;;51.50;41.50;;;;;9.02;100.00;100702.25;6311144;20;2857639;-55
2022/10/06 02:11:11;;;;;;;;;47.67;38.00;;;;;9.08;100.00;100709.16;6277253;20;2860705;-54
2022/10/06 02:13:40;;;;;;;;;45.67;37.00;;;;;9.16;100.00;100706.19;6312067;20;3622130;-52
2022/10/06 02:16:11;;;;;;;;;43.00;35.67;;;;;9.14;100.00;100718.78;6278294;20;3609615;-53
2022/10/06 02:18:40;;;;;;;;;40.00;36.00;;;;;8.99;100.00;100722.94;6279212;20;2855628;-54
2022/10/06 02:21:15;;;;;;;;;28.50;20.00;;;;;8.90;100.00;100718.81;6308566;20;2852437;-51
2022/10/06 02:23:44;;;;;;;;;32.00;30.00;;;;;8.91;100.00;100717.84;6279138;20;2843371;-52
2022/10/06 02:26:16;;;;;;;;;43.00;36.00;;;;;8.90;100.00;100728.63;6276611;20;2854593;-55
2022/10/06 02:28:48;;;;;;;;;51.00;39.67;;;;;8.83;100.00;100725.31;6279269;20;3616643;-51
2022/10/06 02:31:19;;;;;;;;;70.33;52.33;;;;;8.79;100.00;100726.34;6306036;20;3616985;-52
2022/10/06 02:33:49;;;;;;;;;76.33;58.00;;;;;8.92;100.00;100724.94;6311473;20;3651276;-54
2022/10/06 02:36:18;;;;;;;;;83.33;63.00;;;;;8.73;100.00;100726.59;6272186;20;3661760;-54
2022/10/06 02:38:48;;;;;;;;;71.33;51.67;;;;;8.86;100.00;100730.56;6279019;20;3640057;-54
2022/10/06 02:41:18;;;;;;;;;60.67;48.00;;;;;8.90;100.00;100732.19;6307561;20;3622254;-54
2022/10/06 02:43:48;;;;;;;;;63.00;47.67;;;;;8.90;100.00;100729.53;6307545;20;3630462;-51
2022/10/06 02:46:18;;;;;;;;;53.67;42.67;;;;;8.98;100.00;100724.75;6309459;20;2865949;-50
2022/10/06 02:48:49;;;;;;;;;44.33;37.00;;;;;9.02;100.00;100731.72;6312159;20;2845131;-53
2022/10/06 02:51:20;;;;;;;;;50.50;39.00;;;;;8.76;100.00;100727.34;6308292;20;2859668;-55
2022/10/06 02:53:50;;;;;;;;;51.67;40.00;;;;;8.75;100.00;100727.41;6277301;20;2857101;-56
2022/10/06 02:56:23;;;;;;;;;53.33;40.33;;;;;8.82;100.00;100733.41;6304801;20;2858789;-54
2022/10/06 02:58:53;;;;;;;;;45.50;39.00;;;;;8.77;100.00;100734.47;6308469;20;2848213;-54
2022/10/06 03:01:27;;;;;;;;;51.33;41.67;;;;;8.79;100.00;100734.38;6278300;20;2852417;-55
2022/10/06 03:03:57;;;;;;;;;47.00;39.33;;;;;8.78;100.00;100743.34;6311012;20;2862947;-53
2022/10/06 03:06:29;;;;;;;;;50.67;39.67;;;;;8.85;100.00;100736.84;6310562;20;3591951;-54
2022/10/06 03:09:06;;;;;;;;;39.00;33.50;;;;;8.76;100.00;100739.84;6273112;20;2851538;-54
2022/10/06 03:11:44;;;;;;;;;43.00;37.50;;;;;8.61;100.00;100738.63;6277545;20;2863930;-54
2022/10/06 03:14:13;;;;;;;;;38.00;34.00;;;;;8.30;100.00;100741.50;6276852;20;2852596;-54
2022/10/06 03:16:55;;;;;;;;;40.00;36.33;;;;;8.39;100.00;100742.97;6275155;20;3605467;-53
2022/10/06 03:19:26;;;;;;;;;45.33;37.33;;;;;8.40;100.00;100742.97;6277326;20;2864995;-55
2022/10/06 03:21:56;;;;;;;;;45.00;36.00;;;;;8.24;100.00;100739.03;6303072;20;3616924;-52
2022/10/06 03:24:24;;;;;;;;;37.00;34.00;;;;;8.45;100.00;100740.09;6313033;20;3580628;-55
2022/10/06 03:26:53;;;;;;;;;49.00;37.50;;;;;8.26;100.00;100735.38;6271785;20;2852481;-55
2022/10/06 03:29:22;;;;;;;;;49.50;41.00;;;;;8.32;100.00;100736.94;6277372;20;2848328;-54
2022/10/06 03:31:52;;;;;;;;;52.67;40.67;;;;;8.60;100.00;100741.34;6275770;20;3606515;-55
2022/10/06 03:34:20;;;;;;;;;51.50;40.50;;;;;8.51;100.00;100743.44;6310482;20;2856700;-53
2022/10/06 03:36:49;;;;;;;;;48.00;40.00;;;;;8.60;100.00;100738.69;6274218;20;2854576;-52
2022/10/06 03:39:18;;;;;;;;;51.00;43.00;;;;;8.20;100.00;100726.69;6278832;20;2852605;-49
2022/10/06 03:41:47;;;;;;;;;55.33;41.67;;;;;8.39;100.00;100746.53;6277484;20;2858798;-54
2022/10/06 03:44:18;;;;;;;;;51.00;42.67;;;;;8.18;100.00;100744.59;6307376;20;2860735;-54
2022/10/06 03:46:47;;;;;;;;;49.50;39.50;;;;;8.32;100.00;100734.28;6303071;20;2842049;-54
2022/10/06 03:49:17;;;;;;;;;50.00;42.33;;;;;7.97;100.00;100739.06;6276899;20;2860826;-53
2022/10/06 03:51:47;;;;;;;;;80.67;60.67;;;;;8.04;100.00;100735.25;6308402;20;3640905;-51
2022/10/06 03:54:16;;;;;;;;;98.00;86.33;;;;;7.92;100.00;100730.31;6269571;20;3682585;-52
2022/10/06 03:56:46;;;;;;;;;86.67;69.67;;;;;8.00;100.00;100733.59;6270985;20;3673167;-54
2022/10/06 03:59:18;;;;;;;;;77.67;62.67;;;;;7.88;100.00;100728.69;6278515;20;3613844;-54
2022/10/06 04:01:48;;;;;;;;;70.00;53.33;;;;;8.00;100.00;100738.94;6307601;20;3629438;-55
2022/10/06 04:04:19;;;;;;;;;71.67;54.00;;;;;8.00;100.00;100744.28;6305555;20;3645043;-56
2022/10/06 04:06:48;;;;;;;;;69.67;54.67;;;;;7.67;100.00;100741.81;6301686;20;3627328;-51
2022/10/06 04:09:18;;;;;;;;;77.00;54.67;;;;;7.52;100.00;100742.31;6307306;20;3650278;-54
2022/10/06 04:11:50;;;;;;;;;79.33;61.00;;;;;7.48;100.00;100746.03;6266999;20;3615860;-51
2022/10/06 04:14:20;;;;;;;;;80.33;60.33;;;;;7.21;100.00;100743.28;6304391;20;3653397;-55
2022/10/06 04:16:50;;;;;;;;;81.67;63.00;;;;;7.10;100.00;100749.88;6306574;20;3636703;-52
2022/10/06 04:19:20;;;;;;;;;81.67;61.67;;;;;7.27;100.00;100744.91;6309984;20;3632704;-53
2022/10/06 04:21:51;;;;;;;;;71.67;56.00;;;;;7.55;100.00;100752.03;6310631;20;2865086;-51
2022/10/06 04:24:20;;;;;;;;;83.00;62.00;;;;;7.36;100.00;100752.63;6313536;20;3640177;-53
2022/10/06 04:26:51;;;;;;;;;84.33;61.00;;;;;7.23;100.00;100749.44;6277677;20;3651300;-51
2022/10/06 04:29:20;;;;;;;;;72.33;55.67;;;;;6.89;100.00;100741.56;6316116;20;3636715;-51
2022/10/06 04:31:49;;;;;;;;;50.00;40.00;;;;;6.94;100.00;100746.78;6311415;20;2838967;-53
2022/10/06 04:34:20;;;;;;;;;29.00;23.00;;;;;7.29;100.00;100744.84;6283009;20;2849305;-52
2022/10/06 04:36:48;;;;;;;;;35.50;25.00;;;;;7.09;100.00;100749.00;6279245;20;2864821;-55
2022/10/06 04:39:17;;;;;;;;;29.50;26.00;;;;;6.93;100.00;100745.03;6284233;20;2860732;-54
2022/10/06 04:41:47;;;;;;;;;37.33;34.00;;;;;7.08;100.00;100743.69;6279370;20;3619023;-52
2022/10/06 04:44:15;;;;;;;;;37.00;27.00;;;;;6.99;100.00;100740.38;6308502;20;2858648;-54
2022/10/06 04:46:44;;;;;;;;;30.00;30.00;;;;;6.95;100.00;100743.19;6280035;20;2846193;-54
2022/10/06 04:49:14;;;;;;;;;44.67;36.00;;;;;6.79;100.00;100743.66;6280791;20;3609685;-56
2022/10/06 04:51:49;;;;;;;;;46.00;35.67;;;;;7.01;100.00;100729.66;6312338;20;3619401;-54
2022/10/06 04:54:18;;;;;;;;;32.67;30.00;;;;;6.89;100.00;100735.38;6312738;20;3599222;-53
2022/10/06 04:56:47;;;;;;;;;48.00;38.50;;;;;7.14;100.00;100738.19;6309158;20;2851326;-51
2022/10/06 04:59:16;;;;;;;;;52.00;40.00;;;;;6.87;100.00;100732.72;6282243;20;2858726;-54
2022/10/06 05:01:45;;;;;;;;;53.50;43.00;;;;;6.96;100.00;100729.81;6277843;20;2856547;-53
2022/10/06 05:04:13;;;;;;;;;57.00;42.00;;;;;7.27;100.00;100739.56;6279088;20;2855567;-53
2022/10/06 05:06:43;;;;;;;;;56.67;43.33;;;;;7.21;100.00;100734.38;6279461;20;3629427;-53
2022/10/06 05:09:14;;;;;;;;;56.33;44.33;;;;;7.23;100.00;100735.22;6313039;20;2871123;-54
2022/10/06 05:11:44;;;;;;;;;55.00;42.67;;;;;7.29;100.00;100735.03;6312690;20;2871183;-55
2022/10/06 05:14:13;;;;;;;;;61.67;45.33;;;;;7.18;100.00;100713.97;6312072;20;3620057;-55
2022/10/06 05:16:45;;;;;;;;;56.00;45.50;;;;;7.17;100.00;100717.59;6310623;20;2865972;-52
2022/10/06 05:19:15;;;;;;;;;60.67;45.33;;;;;7.21;100.00;100721.03;6278772;20;3634672;-53
2022/10/06 05:21:44;;;;;;;;;57.67;45.33;;;;;7.31;100.00;100722.50;6310665;20;2869098;-52
2022/10/06 05:24:14;;;;;;;;;54.50;42.50;;;;;7.56;100.00;100725.28;6313111;20;2864860;-51
2022/10/06 05:26:42;;;;;;;;;52.50;41.50;;;;;7.36;100.00;100725.03;6279079;20;2854425;-53
2022/10/06 05:29:11;;;;;;;;;48.50;39.50;;;;;7.49;100.00;100723.72;6281575;20;2867994;-53
2022/10/06 05:31:42;;;;;;;;;56.67;44.00;;;;;7.85;100.00;100734.13;6278785;20;3621081;-48
2022/10/06 05:34:11;;;;;;;;;45.33;36.67;;;;;7.95;100.00;100738.22;6310830;20;3620036;-49
2022/10/06 05:36:41;;;;;;;;;31.00;27.00;;;;;7.58;100.00;100736.78;6310903;20;2856524;-53
2022/10/06 05:39:11;;;;;;;;;44.33;34.00;;;;;7.55;100.00;100736.00;6279628;20;3615962;-52
2022/10/06 05:41:40;;;;;;;;;32.33;29.67;;;;;7.56;100.00;100749.31;6314909;20;3592013;-54
2022/10/06 05:44:10;;;;;;;;;42.00;35.67;;;;;7.30;100.00;100754.63;6277139;20;2855481;-54
2022/10/06 05:46:38;;;;;;;;;42.00;35.67;;;;;7.57;100.00;100764.44;6312903;20;3607527;-53
2022/10/06 05:49:10;;;;;;;;;42.33;37.00;;;;;7.80;100.00;100757.47;6282073;20;2871177;-53
2022/10/06 05:51:39;;;;;;;;;33.33;29.00;;;;;7.94;100.00;100760.56;6313826;20;3594091;-51
2022/10/06 05:54:09;;;;;;;;;42.33;34.00;;;;;7.79;100.00;100759.25;6279957;20;2856092;-54
2022/10/06 05:56:38;;;;;;;;;43.33;36.33;;;;;8.14;100.00;100771.47;6310837;20;3597196;-55
2022/10/06 05:59:07;;;;;;;;;39.50;34.50;;;;;8.41;100.00;100767.91;6278429;20;2845204;-52
2022/10/06 06:01:40;;;;;;;;;44.00;36.33;;;;;8.56;100.00;100764.69;6281239;20;2869176;-53
2022/10/06 06:04:12;;;;;;;;;43.67;30.67;;;;;8.93;100.00;100766.91;6310293;20;3614834;-54
2022/10/06 06:06:45;;;;;;;;;44.00;39.00;;;;;9.24;100.00;100773.75;6311684;20;3592161;-53
2022/10/06 06:09:19;;;;;;;;;41.33;35.33;;;;;9.55;100.00;100772.56;6282107;20;2855724;-53
2022/10/06 06:11:53;;;;;;;;;43.67;36.33;;;;;9.86;100.00;100762.31;6312887;20;3607539;-56
2022/10/06 06:15:59;;;;;;;;;49.67;40.67;;;;;10.24;100.00;100777.75;6303591;20;2871271;-53
2022/10/06 06:17:12;;;;;;;;;50.33;42.67;;;;;10.51;100.00;100775.75;6313836;20;3597155;-56
2022/10/06 06:19:42;;;;;;;;;49.67;41.00;;;;;10.69;100.00;100782.97;6275698;20;2847203;-54
2022/10/06 06:22:11;;;;;;;;;52.67;43.00;;;;;10.88;100.00;100787.53;6306862;20;2868136;-54
2022/10/06 06:24:41;;;;;;;;;54.00;44.33;;;;;11.04;100.00;100785.00;6310003;20;2864870;-54
2022/10/06 06:27:09;;;;;;;;;51.33;42.00;;;;;11.06;100.00;100784.00;6311164;20;3596106;-55
2022/10/06 06:29:39;;;;;;;;;53.33;39.33;;;;;11.60;100.00;100787.72;6278189;20;3618238;-54
2022/10/06 06:32:08;;;;;;;;;47.00;40.00;;;;;11.93;99.74;100787.06;6315590;20;3588864;-52
2022/10/06 06:34:37;;;;;;;;;47.00;37.00;;;;;12.17;98.88;100792.16;6277157;20;2856564;-53
2022/10/06 06:37:09;;;;;;;;;49.00;40.33;;;;;12.47;98.21;100793.28;6311669;20;2855709;-52
2022/10/06 06:39:43;;;;;;;;;40.33;36.00;;;;;12.80;96.29;100797.88;6307861;20;2862906;-54
2022/10/06 06:42:12;;;;;;;;;52.00;40.67;;;;;13.04;95.11;100800.19;6313775;20;3606508;-55
2022/10/06 06:44:41;;;;;;;;;48.00;41.33;;;;;13.34;93.82;100801.25;6312606;20;3584847;-56
2022/10/06 06:47:10;;;;;;;;;49.33;39.00;;;;;15.52;83.71;100814.44;6279900;20;3609611;-53
2022/10/06 06:49:41;;;;;;;;;42.33;36.00;;;;;17.83;74.36;100813.13;6314634;20;3603554;-56
2022/10/06 06:52:11;;;;;;;;;47.00;38.33;;;;;18.43;71.36;100823.03;6282131;20;3604444;-56
2022/10/06 06:54:39;;;;;;;;;37.33;34.67;;;;;16.29;75.85;100820.28;6316670;20;3601300;-56
2022/10/06 06:57:09;;;;;;;;;46.67;38.00;;;;;14.37;83.97;100813.38;6277497;20;3593998;-56
2022/10/06 06:59:37;;;;;;;;;42.67;35.67;;;;;13.95;87.78;100813.09;6315035;20;3613239;-56
2022/10/06 07:02:10;;;;;;;;;47.00;37.67;;;;;13.95;88.45;100806.84;6280445;20;2860888;-53
2022/10/06 07:04:39;;;;;;;;;44.00;38.00;;;;;14.41;89.22;100814.97;6314490;20;3582584;-56
2022/10/06 07:07:11;;;;;;;;;35.33;32.33;;;;;14.04;89.22;100811.72;6279074;20;3604395;-55
2022/10/06 07:09:39;;;;;;;;;39.33;33.33;;;;;14.17;89.14;100822.69;6318320;20;3597160;-54
2022/10/06 07:12:10;;;;;;;;;57.00;46.00;;;;;14.40;86.62;100824.00;6282263;20;3625421;-54
2022/10/06 07:25:05;;;;;;;;;49.33;39.00;;;;;14.28;88.48;100820.22;6313837;20;3599223;-54
2022/10/06 07:25:52;;;;;;;;;42.00;36.33;;;;;13.91;92.46;100833.16;6279788;20;2850358;-50
2022/10/06 07:28:23;;;;;;;;;42.67;36.67;;;;;13.69;94.03;100828.09;6315202;20;3589817;-53
2022/10/06 07:30:52;;;;;;;;;47.00;37.00;;;;;13.97;93.64;100831.94;6280903;20;2853520;-55
2022/10/06 07:33:21;;;;;;;;;40.33;34.33;;;;;13.86;93.17;100828.97;6311905;20;2855558;-53
2022/10/06 07:35:51;;;;;;;;;46.00;37.00;;;;;13.90;92.40;100833.22;6310651;20;2853394;-53
2022/10/06 07:38:24;;;;;;;;;48.00;39.00;;;;;13.70;93.74;100832.53;6313261;20;3614968;-51
2022/10/06 07:40:57;;;;;;;;;37.00;34.00;;;;;13.71;93.75;100836.97;6280558;20;2730454;-55
2022/10/06 07:43:46;;;;;;;;;45.50;36.50;;;;;13.70;93.35;100837.06;6311585;20;2839649;-59
2022/10/06 07:46:17;;;;;;;;;43.00;36.67;;;;;13.81;92.04;100848.13;6277636;20;2858663;-55
2022/10/06 07:48:48;;;;;;;;;39.67;36.00;;;;;13.58;92.74;100847.56;6315052;20;3607593;-56
2022/10/06 07:51:19;;;;;;;;;48.00;36.67;;;;;13.55;92.58;100852.28;6279106;20;2862980;-54
2022/10/06 07:53:52;;;;;;;;;46.33;39.00;;;;;13.57;93.38;100844.97;6316255;20;2853428;-55
2022/10/06 07:56:21;;;;;;;;;44.33;36.67;;;;;13.48;93.67;100853.56;6319446;20;3588864;-53
2022/10/06 07:58:50;;;;;;;;;42.33;34.00;;;;;13.46;93.38;100858.19;6283679;20;3615861;-52
2022/10/06 08:01:20;;;;;;;;;35.33;33.00;;;;;13.65;92.50;100867.00;6312236;20;2863002;-53
2022/10/06 08:03:49;;;;;;;;;38.33;34.33;;;;;13.54;92.04;100862.19;6316557;20;3589833;-52
2022/10/06 08:06:18;;;;;;;;;44.00;35.50;;;;;13.44;93.26;100868.19;6282123;20;2844061;-59
2022/10/06 08:08:48;;;;;;;;;47.33;38.33;;;;;13.52;94.23;100864.09;6286790;20;2866968;-59
2022/10/06 08:11:21;;;;;;;;;46.33;38.67;;;;;13.56;94.60;100865.69;6320279;20;3597178;-59
2022/10/06 08:13:51;;;;;;;;;48.33;39.00;;;;;13.73;93.95;100859.34;6283240;20;3615888;-59
2022/10/06 08:16:28;;;;;;;;;49.00;39.33;;;;;13.38;94.93;100874.78;6316279;20;3609788;-59
2022/10/06 08:18:59;;;;;;;;;46.33;38.67;;;;;13.72;94.92;100873.81;6285894;20;3596278;-59
2022/10/06 08:21:33;;;;;;;;;47.33;38.67;;;;;13.87;92.96;100882.00;6277028;20;3590075;-59
2022/10/06 08:24:02;;;;;;;;;45.67;37.00;;;;;14.14;91.67;100888.56;6319013;20;3610666;-59
2022/10/06 08:26:32;;;;;;;;;51.00;40.33;;;;;14.22;92.05;100885.41;6280514;20;3616927;-59
2022/10/06 08:29:02;;;;;;;;;41.33;36.33;;;;;14.35;90.32;100897.25;6316451;20;3615901;-59
2022/10/06 08:31:32;;;;;;;;;39.00;33.33;;;;;14.73;88.28;100896.00;6282461;20;3609703;-59
2022/10/06 08:34:01;;;;;;;;;42.67;33.33;;;;;15.55;85.04;100890.91;6320380;20;3622134;-59
2022/10/06 08:36:29;;;;;;;;;37.33;34.00;;;;;16.51;80.46;100907.31;6285386;20;3601330;-59
2022/10/06 08:39:01;;;;;;;;;39.00;34.00;;;;;16.82;78.51;100903.41;6286350;20;2853486;-59
2022/10/06 08:41:49;;;;;;;;;40.33;36.00;;;;;16.91;78.55;100898.38;6317704;20;3613864;-53
2022/10/06 08:44:48;;;;;;;;;39.33;34.67;;;;;17.34;78.23;100897.09;6286730;20;3599269;-50
2022/10/06 08:47:21;;;;;;;;;35.33;32.33;;;;;17.37;76.43;100900.56;6284416;20;3593010;-52
2022/10/06 08:49:53;;;;;;;;;36.33;32.67;;;;;17.78;76.26;100901.22;6284920;20;3603377;-49
2022/10/06 08:52:38;;;;;;;;;40.67;32.00;;;;;18.13;76.02;100900.50;6288033;20;3611709;-54
2022/10/06 08:55:46;;;;;;;;;35.67;31.00;;;;;17.81;74.71;100900.16;6288034;20;3604575;-50
2022/10/06 08:58:33;;;;;;;;;35.67;30.33;;;;;18.65;73.21;100893.03;6283031;20;3602369;-55
2022/10/06 09:01:32;;;;;;;;;32.33;28.33;;;;;19.42;69.92;100889.81;6284350;20;3582671;-49
2022/10/06 09:04:06;;;;;;;;;34.00;30.67;;;;;18.78;72.21;100879.38;6291089;20;3599233;-54
2022/10/06 09:07:12;;;;;;;;;32.33;29.67;;;;;18.34;72.89;100880.88;6283744;20;3606497;-51
2022/10/06 09:10:34;;;;;;;;;32.00;30.00;;;;;18.79;74.04;100890.13;6284529;20;3580478;-53
2022/10/06 09:13:24;;;;;;;;;34.67;30.00;;;;;18.78;71.11;100895.72;6283833;20;3592020;-53
2022/10/06 09:16:09;;;;;;;;;30.00;28.67;;;;;18.45;71.65;100897.22;6286787;20;3604399;-52
2022/10/06 09:18:51;;;;;;;;;25.33;24.67;;;;;18.19;71.24;100891.03;6283805;20;3595070;-54
2022/10/06 09:21:44;;;;;;;;;34.00;31.33;;;;;17.96;74.61;100890.03;6282481;20;3580526;-52
2022/10/06 09:24:41;;;;;;;;;30.67;28.33;;;;;17.90;73.37;100893.16;6282772;20;3595034;-51
2022/10/06 09:27:36;;;;;;;;;34.67;33.00;;;;;17.73;75.77;100897.94;6283439;20;3599272;-53
2022/10/06 09:30:07;;;;;;;;;47.33;38.00;;;;;17.81;75.52;100893.84;6284908;20;3623175;-52
2022/10/06 09:32:37;;;;;;;;;31.67;31.00;;;;;17.46;75.28;100899.94;6285263;20;3583545;-52
2022/10/06 09:35:26;;;;;;;;;34.33;30.67;;;;;17.73;76.36;100897.94;6284099;20;3606535;-53
2022/10/06 09:38:03;;;;;;;;;38.00;34.33;;;;;18.10;74.49;100898.00;6316795;20;3604433;-54
2022/10/06 09:40:48;;;;;;;;;30.00;28.33;;;;;17.86;74.54;100894.38;6284480;20;3584713;-52
2022/10/06 09:43:26;;;;;;;;;31.67;30.00;;;;;18.12;74.61;100893.34;6285280;20;3596179;-51
2022/10/06 09:46:22;;;;;;;;;28.00;28.00;;;;;17.89;74.02;100896.88;6283843;20;3577330;-50
2022/10/06 09:49:06;;;;;;;;;25.67;23.33;;;;;18.39;73.10;100889.53;6284020;20;3585673;-53
2022/10/06 09:51:35;;;;;;;;;26.33;25.67;;;;;18.46;72.69;100900.81;6286465;20;3597556;-52
2022/10/06 09:54:15;;;;;;;;;25.00;25.00;;;;;17.99;73.47;100897.94;6286232;20;3592922;-51
2022/10/06 09:56:46;;;;;;;;;31.00;28.67;;;;;17.94;73.50;100900.13;6280724;20;3600249;-50
2022/10/06 09:59:22;;;;;;;;;31.00;27.00;;;;;18.30;72.22;100902.00;6286959;20;3601297;-52
2022/10/06 10:01:58;;;;;;;;;25.33;25.33;;;;;18.25;73.80;100903.31;6281463;20;3592023;-54
2022/10/06 10:04:30;;;;;;;;;25.00;25.00;;;;;18.18;73.71;100902.88;6282450;20;3594035;-50
2022/10/06 10:07:25;;;;;;;;;27.33;27.33;;;;;18.36;72.45;100900.66;6279570;20;3581639;-53
2022/10/06 10:10:23;;;;;;;;;26.33;25.00;;;;;18.11;73.45;100902.47;6284258;20;3590848;-51
2022/10/06 10:12:58;;;;;;;;;26.33;24.67;;;;;18.97;72.22;100895.16;6282291;20;3593004;-54
2022/10/06 10:15:53;;;;;;;;;25.00;24.67;;;;;18.98;71.76;100903.19;6280438;20;3583650;-53
2022/10/06 10:18:26;;;;;;;;;24.00;22.33;;;;;19.24;69.82;100901.16;6285127;20;3600295;-49
2022/10/06 10:21:03;;;;;;;;;25.67;21.67;;;;;19.69;69.92;100905.81;6281047;20;3586080;-51
2022/10/06 10:23:42;;;;;;;;;23.00;23.00;;;;;19.78;69.38;100896.94;6286602;20;3588904;-53
2022/10/06 10:26:54;;;;;;;;;23.33;23.33;;;;;19.51;70.36;100895.41;6279745;20;3585690;-52
2022/10/06 10:30:00;;;;;;;;;22.00;20.33;;;;;19.10;70.51;100885.03;6282213;20;3585845;-53
2022/10/06 10:33:07;;;;;;;;;28.00;26.00;;;;;20.44;69.43;100891.50;6283394;20;3590916;-51
2022/10/06 10:35:45;;;;;;;;;19.33;19.33;;;;;19.20;71.19;100890.66;6279727;20;3577362;-56
2022/10/06 10:38:21;;;;;;;;;22.33;21.33;;;;;19.68;70.16;100890.47;6279832;20;3578343;-55
2022/10/06 10:41:18;;;;;;;;;22.00;22.00;;;;;19.57;69.37;100894.03;6283116;20;3586758;-53
2022/10/06 10:44:12;;;;;;;;;22.00;19.67;;;;;19.93;68.24;100894.78;6279617;20;3559691;-54
2022/10/06 10:47:20;;;;;;;;;18.67;18.67;;;;;20.38;68.65;100884.69;6276706;20;2821189;-59
2022/10/06 10:50:07;;;;;;;;;21.67;21.33;;;;;19.78;70.78;100875.13;6313003;20;3587920;-54
2022/10/06 10:52:48;;;;;;;;;15.33;13.67;;;;;20.27;66.83;100889.28;6313478;20;3538849;-54
2022/10/06 10:55:45;;;;;;;;;17.33;15.67;;;;;20.35;66.89;100884.94;6313174;20;3560705;-52
2022/10/06 10:58:37;;;;;;;;;20.00;15.33;;;;;20.20;67.58;100885.38;6281066;20;3557560;-56
2022/10/06 11:01:38;;;;;;;;;16.00;16.00;;;;;20.74;65.47;100882.59;6308236;20;2828518;-55
2022/10/06 11:04:13;;;;;;;;;19.33;17.33;;;;;20.29;64.27;100880.00;6281560;20;2483616;-55
2022/10/06 11:07:05;;;;;;;;;14.00;13.00;;;;;20.22;64.18;100878.78;6307903;20;2812868;-55
2022/10/06 11:09:58;;;;;;;;;12.50;12.50;;;;;20.29;64.79;100882.72;6278347;20;2803539;-54
2022/10/06 11:13:01;;;;;;;;;10.33;9.00;;;;;19.71;61.98;100871.16;6277837;20;3493233;-55
2022/10/06 11:16:04;;;;;;;;;16.00;15.00;;;;;20.42;62.63;100870.78;6307367;20;2823236;-56
2022/10/06 11:19:23;;;;;;;;;18.33;18.00;;;;;19.97;63.31;100862.72;6281121;20;2844028;-56
2022/10/06 11:22:01;;;;;;;;;15.33;15.33;;;;;20.07;65.26;100869.16;6309854;20;3556517;-54
2022/10/06 11:25:12;;;;;;;;;12.00;12.00;;;;;20.31;63.42;100879.88;6312650;20;2483682;-53
2022/10/06 11:28:12;;;;;;;;;20.00;20.00;;;;;20.07;63.51;100871.88;6314430;20;2825308;-54
2022/10/06 11:30:58;;;;;;;;;21.00;19.00;;;;;20.54;61.16;100876.13;6286854;20;3568007;-52
2022/10/06 11:33:53;;;;;;;;;15.00;14.00;;;;;20.42;62.60;100873.50;6283062;20;3538206;-52
2022/10/06 11:36:45;;;;;;;;;16.33;15.00;;;;;20.43;61.72;100876.09;6287101;20;3548209;-53
2022/10/06 11:39:23;;;;;;;;;18.00;16.00;;;;;20.25;62.77;100856.72;6288690;20;3564915;-54